Latest Weather Observations for Bairnsdale

IDV60801

Issued at 2:05 pm EST Monday 21 April 2014 (issued every 30 minutes, with the page automatically refreshed every 10 minutes)

About weather observations | Map of weather stations | Latest weather observations for VIC | Other Formats
Station Details ID: 085279 Name: BAIRNSDALE AIRPORT Lat: -37.88 Lon: 147.57 Height: 49.4 m
Data from the previous 72 hours. | See also: Recent months at Bairnsdale
Date/Time
EST
Temp
°C
App
Temp
°C
Dew
Point
Rel
Hum
%
Delta-T
°C
Wind Press
QNH
hPa
Press
MSL
hPa
Rain
since 9 am
mm
Dir
 
Spd
km/h
Gust
km/h
Spd
kts
Gust
kts
21/02:00pm 20.0 16.3 8.0 46 6.2 NNE 17 20 9 11 1016.3 - 0.0
21/01:30pm 20.3 17.4 9.5 50 5.8 NE 15 19 8 10 1016.8 - 0.0
21/01:00pm 19.1 16.9 7.8 48 5.8 N 9 13 5 7 1017.5 - 0.0
21/12:30pm 18.9 17.1 8.0 49 5.6 NNW 7 9 4 5 1018.2 - 0.0
21/12:00pm 17.9 16.2 8.5 54 4.8 N 7 13 4 7 1018.5 1018.5 0.0
21/11:30am 17.4 15.7 8.5 56 4.6 NNE 7 9 4 5 1018.9 - 0.0
21/11:00am 16.5 14.3 8.0 57 4.3 NNE 9 11 5 6 1019.2 - 0.0
21/10:30am 15.7 13.8 7.7 59 4.0 NNE 7 11 4 6 1019.4 - 0.0
21/10:00am 14.1 11.6 6.7 61 3.6 NNE 9 11 5 6 1019.6 - 0.0
21/09:30am 13.5 11.5 7.1 65 3.1 N 7 9 4 5 1020.1 - 0.0
21/09:00am 12.3 9.8 6.6 68 2.7 NNE 9 13 5 7 1019.8 1019.8 0.0
21/08:30am 11.1 9.0 6.8 75 2.0 N 7 9 4 5 1020.2 - 0.0
21/08:00am 9.9 7.2 5.7 75 1.9 N 9 11 5 6 1019.9 - 0.0
21/07:30am 8.5 5.2 4.7 77 1.7 NNE 11 13 6 7 1019.7 - 0.0
21/07:00am 7.4 4.7 3.8 78 1.5 N 7 7 4 4 1019.5 - 0.0
21/06:30am 7.4 3.9 3.6 77 1.6 N 11 13 6 7 1019.3 - 0.0
21/06:00am 7.8 4.7 3.7 75 1.8 N 9 11 5 6 1019.2 1019.2 0.0
21/05:30am 8.5 5.5 4.1 74 1.9 N 9 11 5 6 1019.0 - 0.0
21/05:00am 7.9 4.9 4.1 77 1.7 N 9 11 5 6 1018.8 - 0.0
21/04:30am 7.6 4.6 4.0 78 1.6 N 9 11 5 6 1018.5 - 0.0
21/04:00am 8.2 4.8 4.2 76 1.7 NW 11 15 6 8 1018.3 - 0.0
21/03:30am 7.3 3.8 3.7 78 1.5 NW 11 15 6 8 1018.3 - 0.0
21/03:00am 7.4 4.3 3.8 78 1.5 N 9 11 5 6 1018.3 1018.3 0.0
21/02:30am 8.6 4.8 4.0 73 2.0 NNW 13 17 7 9 1018.3 - 0.0
21/02:00am 8.9 4.8 4.3 73 2.0 NW 15 17 8 9 1018.5 - 0.0
21/01:30am 8.1 4.3 4.1 76 1.7 NW 13 17 7 9 1018.6 - 0.0
21/01:00am 7.5 4.1 3.9 78 1.6 NW 11 13 6 7 1018.6 - 0.0
21/12:30am 7.3 4.2 3.7 78 1.5 NW 9 11 5 6 1018.6 - 0.0
21/12:00am 7.4 4.4 4.0 79 1.5 NW 9 11 5 6 1018.4 1018.4 0.0
 
Date/Time
EST
Temp
°C
App
Temp
°C
Dew
Point
Rel
Hum
%
Delta-T
°C
Wind Press
QNH
hPa
Press
MSL
hPa
Rain
since 9 am
mm
Dir
 
Spd
km/h
Gust
km/h
Spd
kts
Gust
kts
20/11:30pm 7.2 3.8 4.0 80 1.4 NW 11 13 6 7 1018.5 - 0.0
20/11:00pm 7.7 4.3 3.9 77 1.6 NW 11 13 6 7 1018.6 - 0.0
20/10:30pm 8.3 4.9 4.1 75 1.8 NW 11 15 6 8 1018.8 - 0.0
20/10:00pm 8.3 4.5 4.1 75 1.8 WNW 13 13 7 7 1018.8 - 0.0
20/09:30pm 7.9 4.5 3.8 75 1.8 NW 11 13 6 7 1018.7 - 0.0
20/09:00pm 8.4 5.0 3.8 73 2.0 NW 11 13 6 7 1018.4 1018.4 0.0
20/08:30pm 9.0 5.9 3.6 69 2.3 NNW 9 11 5 6 1018.4 - 0.0
20/08:00pm 9.6 6.5 3.8 67 2.5 NW 9 11 5 6 1018.3 - 0.0
20/07:30pm 10.0 6.6 4.0 66 2.7 NW 11 13 6 7 1018.2 - 0.0
20/07:00pm 10.7 7.3 4.2 64 2.9 NW 11 13 6 7 1017.9 - 0.0
20/06:30pm 11.1 8.2 4.6 64 2.9 WNW 9 13 5 7 1017.7 - 0.0
20/06:00pm 12.0 9.2 5.0 62 3.2 WNW 9 11 5 6 1017.3 1017.3 0.0
20/05:30pm 13.9 10.7 5.3 56 4.0 NW 11 15 6 8 1017.0 - 0.0
20/05:00pm 16.0 12.0 4.7 47 5.3 NW 15 20 8 11 1016.7 - 0.0
20/04:30pm 15.1 11.1 4.8 50 4.8 WNW 15 22 8 12 1016.7 - 0.0
20/04:00pm 15.2 10.7 4.0 47 5.2 W 17 24 9 13 1016.6 - 0.0
20/03:30pm 16.9 11.0 3.9 42 6.1 W 24 35 13 19 1016.4 - 0.0
20/03:00pm 17.1 11.6 4.1 42 6.1 W 22 30 12 16 1016.4 1016.4 0.0
20/02:30pm 16.8 11.4 4.5 44 5.8 W 22 28 12 15 1016.1 - 0.0
20/02:00pm 16.3 10.4 4.0 44 5.7 W 24 35 13 19 1016.1 - 0.0
20/01:30pm 16.3 9.1 3.0 41 6.1 W 30 43 16 23 1016.1 - 0.0
20/01:00pm 16.4 10.8 3.5 42 6.0 W 22 37 12 20 1016.3 - 0.0
20/12:30pm 16.3 10.2 3.0 41 6.1 W 24 33 13 18 1016.6 - 0.0
20/12:00pm 16.9 10.6 3.6 41 6.2 W 26 35 14 19 1016.9 1016.9 0.0
20/11:30am 16.7 10.5 4.4 44 5.8 WNW 26 35 14 19 1017.2 - 0.0
20/11:00am 15.6 12.6 7.6 59 4.0 NW 13 20 7 11 1017.5 - 0.0
20/10:30am 15.0 12.6 8.7 66 3.2 NNW 11 17 6 9 1017.8 - 0.0
20/10:00am 14.2 11.4 8.4 68 2.9 NW 13 19 7 10 1018.0 - 0.0
20/09:30am 13.8 11.2 9.3 74 2.3 NW 13 15 7 8 1017.9 - 0.0
20/09:00am 12.8 10.1 9.1 78 1.9 NW 13 17 7 9 1018.0 1018.0 0.0
20/08:30am 11.5 9.2 9.1 85 1.2 NW 11 15 6 8 1017.9 - 0.0
20/08:00am 10.6 8.3 9.0 90 0.8 NW 11 15 6 8 1017.7 - 0.0
20/07:30am 9.3 6.8 8.2 93 0.5 NW 11 13 6 7 1017.5 - 0.0
20/07:00am 9.0 6.8 7.8 92 0.6 NW 9 11 5 6 1017.3 - 0.0
20/06:30am 9.5 7.4 8.1 91 0.7 NNW 9 11 5 6 1017.0 - 0.0
20/06:00am 10.2 8.5 8.5 89 0.8 NW 7 9 4 5 1016.9 1016.9 0.0
20/05:30am 10.3 8.3 8.6 89 0.8 NW 9 11 5 6 1016.8 - 0.0
20/05:00am 10.3 8.3 8.6 89 0.8 NW 9 11 5 6 1016.6 - 0.0
20/04:30am 10.1 8.0 8.4 89 0.8 NW 9 9 5 5 1016.4 - 0.0
20/04:00am 10.2 8.2 8.5 89 0.8 WNW 9 11 5 6 1016.6 - 0.0
20/03:30am 10.0 7.9 8.4 90 0.8 NW 9 11 5 6 1016.6 - 0.0
20/03:00am 9.8 8.2 7.9 88 0.9 NW 6 7 3 4 1016.6 1016.6 0.0
20/02:30am 10.5 9.0 8.6 88 0.9 N 6 7 3 4 1016.6 - 0.0
20/02:00am 10.5 8.5 8.8 89 0.8 NNW 9 11 5 6 1017.0 - 0.0
20/01:30am 10.4 8.4 8.7 89 0.8 NW 9 11 5 6 1017.3 - 0.0
20/01:00am 10.4 8.4 8.7 89 0.8 NW 9 11 5 6 1017.5 - 0.0
20/12:30am 10.4 8.4 8.5 88 0.9 NW 9 11 5 6 1017.7 - 0.0
20/12:00am 10.1 8.0 8.4 89 0.8 NW 9 11 5 6 1017.8 1017.8 0.0
 
Date/Time
EST
Temp
°C
App
Temp
°C
Dew
Point
Rel
Hum
%
Delta-T
°C
Wind Press
QNH
hPa
Press
MSL
hPa
Rain
since 9 am
mm
Dir
 
Spd
km/h
Gust
km/h
Spd
kts
Gust
kts
19/11:30pm 9.9 7.8 8.3 90 0.8 NW 9 13 5 7 1018.0 - 0.0
19/11:00pm 9.4 7.2 7.7 89 0.8 NW 9 11 5 6 1018.2 - 0.0
19/10:30pm 10.1 7.9 7.9 86 1.1 NW 9 11 5 6 1018.4 - 0.0
19/10:00pm 10.6 8.5 8.4 86 1.1 WNW 9 13 5 7 1018.5 - 0.0
19/09:30pm 10.5 8.8 8.3 86 1.1 NW 7 9 4 5 1018.6 - 0.0
19/09:00pm 10.5 8.4 8.4 87 1.0 NW 9 11 5 6 1018.6 1018.6 0.0
19/08:30pm 9.7 7.4 7.6 87 1.0 NW 9 11 5 6 1018.5 - 0.0
19/08:00pm 10.0 8.2 7.8 86 1.1 W 7 9 4 5 1018.5 - 0.0
19/07:30pm 10.3 8.5 7.9 85 1.2 NNW 7 9 4 5 1018.5 - 0.0
19/07:00pm 10.2 8.5 7.6 84 1.2 W 6 11 3 6 1018.4 - 0.0
19/06:30pm 11.5 9.9 8.0 79 1.7 SW 6 7 3 4 1018.2 - 0.0
19/06:00pm 12.3 10.6 8.4 77 1.9 SW 7 7 4 4 1017.9 1017.9 0.0
19/05:30pm 13.4 10.6 8.5 72 2.5 SW 13 15 7 8 1017.8 - 0.0
19/05:00pm 14.0 10.4 8.2 68 2.9 WSW 17 24 9 13 1017.7 - 0.0
19/04:30pm 14.4 10.8 8.4 67 3.0 SW 17 24 9 13 1017.5 - 0.0
19/04:00pm 15.0 10.9 8.5 65 3.3 WSW 20 26 11 14 1017.5 - 0.0
19/03:30pm 15.5 10.7 7.3 58 4.1 WSW 22 26 12 14 1017.3 - 0.0
19/03:00pm 16.7 12.5 8.4 58 4.2 WSW 20 28 11 15 1017.3 1017.3 0.0
19/02:30pm 15.8 11.1 7.8 59 4.0 WSW 22 30 12 16 1017.5 - 0.0
19/02:00pm 15.6 11.6 8.4 62 3.7 WSW 19 24 10 13 1017.6 - 0.0
19/01:30pm 14.9 10.2 9.3 69 2.9 SW 24 32 13 17 1017.6 - 0.0
19/01:00pm 17.4 12.1 6.6 49 5.3 W 24 37 13 20 1017.7 - 0.0
19/12:30pm 16.3 11.2 7.5 56 4.4 WSW 24 33 13 18 1018.1 - 0.0
19/12:00pm 15.4 9.8 8.6 64 3.5 W 28 39 15 21 1018.5 1018.5 0.0
19/11:30am 14.6 9.8 7.4 62 3.6 W 22 32 12 17 1018.8 - 0.0
19/11:00am 14.7 9.0 6.8 59 3.9 WSW 26 35 14 19 1019.0 - 0.0
19/10:30am 16.0 11.3 7.7 58 4.2 W 22 32 12 17 1019.0 - 0.0
19/10:00am 15.3 11.2 8.8 65 3.3 W 20 26 11 14 1019.2 - 0.0
19/09:30am 13.8 9.1 7.8 67 3.0 W 22 30 12 16 1019.2 - 0.0
19/09:00am 13.2 9.3 7.2 67 2.9 W 17 24 9 13 1019.3 1019.3 1.0
19/08:30am 12.5 8.4 7.8 73 2.3 W 19 24 10 13 1019.2 - 1.0
19/08:00am 11.2 7.8 7.7 79 1.7 WNW 15 19 8 10 1018.8 - 1.0
19/07:30am 11.4 7.7 7.9 79 1.7 WNW 17 20 9 11 1018.6 - 1.0
19/07:00am 11.1 7.4 7.8 80 1.6 W 17 22 9 12 1018.3 - 1.0
19/06:30am 11.1 7.7 7.6 79 1.7 WNW 15 20 8 11 1018.2 - 1.0
19/06:00am 11.0 7.2 7.5 79 1.7 W 17 24 9 13 1018.0 1018.0 1.0
19/05:30am 10.8 6.6 7.5 80 1.6 W 19 24 10 13 1017.6 - 1.0
19/05:00am 10.5 6.7 7.6 82 1.4 W 17 22 9 12 1017.5 - 1.0
19/04:30am 9.3 5.3 6.6 83 1.3 WNW 17 22 9 12 1017.5 - 1.0
19/04:00am 9.1 5.1 6.5 84 1.2 WNW 17 22 9 12 1017.1 - 1.0
19/03:30am 9.1 5.2 6.9 86 1.0 WNW 17 20 9 11 1017.2 - 1.0
19/03:00am 8.8 5.1 6.4 85 1.1 WNW 15 17 8 9 1017.3 1017.3 1.0
19/02:30am 9.4 5.4 6.7 83 1.3 WNW 17 20 9 11 1017.4 - 1.0
19/02:00am 9.5 5.5 6.8 83 1.3 WNW 17 22 9 12 1017.5 - 1.0
19/01:30am 9.3 4.9 6.4 82 1.3 W 19 26 10 14 1017.8 - 1.0
19/01:00am 9.4 5.0 6.5 82 1.3 W 19 24 10 13 1017.8 - 1.0
19/12:30am 9.3 4.9 6.6 83 1.3 W 19 22 10 12 1017.8 - 1.0
19/12:00am 9.2 5.5 6.5 83 1.3 W 15 19 8 10 1017.9 1017.9 1.0
 
Date/Time
EST
Temp
°C
App
Temp
°C
Dew
Point
Rel
Hum
%
Delta-T
°C
Wind Press
QNH
hPa
Press
MSL
hPa
Rain
since 9 am
mm
Dir
 
Spd
km/h
Gust
km/h
Spd
kts
Gust
kts
18/11:30pm 9.4 5.7 6.5 82 1.3 WNW 15 20 8 11 1018.0 - 1.0
18/11:00pm 9.9 5.8 6.4 79 1.6 WNW 17 22 9 12 1017.9 - 1.0
18/10:30pm 10.1 5.8 6.8 80 1.6 WNW 19 22 10 12 1018.2 - 1.0
18/10:00pm 10.4 6.7 6.4 76 1.9 W 15 19 8 10 1018.4 - 1.0
18/09:30pm 11.0 7.0 6.6 74 2.1 W 17 24 9 13 1018.4 - 1.0
18/09:00pm 10.6 7.1 7.1 79 1.7 W 15 20 8 11 1018.2 1018.2 1.0
18/08:30pm 10.3 7.2 7.2 81 1.5 NW 13 17 7 9 1018.0 - 1.0
18/08:00pm 10.7 7.2 7.4 80 1.6 NW 15 17 8 9 1017.8 - 1.0
18/07:30pm 12.4 8.7 7.9 74 2.2 W 17 20 9 11 1017.5 - 1.0
18/07:00pm 13.0 9.1 8.7 75 2.2 W 19 30 10 16 1017.3 - 1.0
18/06:30pm 12.7 8.7 8.4 75 2.1 WNW 19 24 10 13 1016.8 - 1.0
18/06:00pm 13.1 9.0 8.6 74 2.3 W 20 26 11 14 1016.5 1016.5 1.0
18/05:30pm 13.7 9.9 9.2 74 2.3 W 19 26 10 14 1016.1 - 1.0
18/05:00pm 14.4 9.3 9.2 71 2.7 W 26 35 14 19 1015.4 - 1.0
18/04:30pm 15.8 12.0 9.9 68 3.1 W 20 32 11 17 1015.0 - 1.0
18/04:00pm 14.9 9.9 9.7 71 2.7 WSW 26 35 14 19 1014.7 - 1.0
18/03:30pm 14.5 9.2 9.7 73 2.5 W 28 39 15 21 1014.4 - 1.0
18/03:00pm 14.4 9.1 11.2 81 1.7 W 30 46 16 25 1013.9 1013.8 1.0
18/02:30pm 13.8 8.3 11.8 88 1.1 WSW 32 43 17 23 1013.6 - 1.0

Other Formats:

Comma delimited format used in spreadsheet applications
http://www.bom.gov.au/fwo/IDV60801/IDV60801.94912.axf

JavaScript Object Notation format (JSON) in row-major order
http://www.bom.gov.au/fwo/IDV60801/IDV60801.94912.json